sensor_id;sensor_type;location;lat;lon;timestamp;temperature;humidity
27384;DHT22;14851;51.166;4.760;2023-10-31T00:00:27;11.00;99.90
27384;DHT22;14851;51.166;4.760;2023-10-31T00:02:54;11.00;99.90
27384;DHT22;14851;51.166;4.760;2023-10-31T00:05:20;11.00;99.90
27384;DHT22;14851;51.166;4.760;2023-10-31T00:07:46;11.00;99.90
27384;DHT22;14851;51.166;4.760;2023-10-31T00:10:12;11.00;99.90
27384;DHT22;14851;51.166;4.760;2023-10-31T00:12:39;11.00;99.90
27384;DHT22;14851;51.166;4.760;2023-10-31T00:15:05;11.00;99.90
27384;DHT22;14851;51.166;4.760;2023-10-31T00:17:32;11.00;99.90
27384;DHT22;14851;51.166;4.760;2023-10-31T00:20:00;11.00;99.90
27384;DHT22;14851;51.166;4.760;2023-10-31T00:22:27;11.00;99.90
27384;DHT22;14851;51.166;4.760;2023-10-31T00:24:53;11.00;99.90
27384;DHT22;14851;51.166;4.760;2023-10-31T00:27:19;11.00;99.90
27384;DHT22;14851;51.166;4.760;2023-10-31T00:29:48;11.00;99.90
27384;DHT22;14851;51.166;4.760;2023-10-31T00:32:14;11.00;99.90
27384;DHT22;14851;51.166;4.760;2023-10-31T00:34:43;11.00;99.90
27384;DHT22;14851;51.166;4.760;2023-10-31T00:37:11;11.00;99.90
27384;DHT22;14851;51.166;4.760;2023-10-31T00:39:40;11.00;99.90
27384;DHT22;14851;51.166;4.760;2023-10-31T00:42:06;11.00;99.90
27384;DHT22;14851;51.166;4.760;2023-10-31T00:44:34;11.00;99.90
27384;DHT22;14851;51.166;4.760;2023-10-31T00:47:02;11.00;99.90
27384;DHT22;14851;51.166;4.760;2023-10-31T00:49:31;11.00;99.90
27384;DHT22;14851;51.166;4.760;2023-10-31T00:51:57;11.10;99.90
27384;DHT22;14851;51.166;4.760;2023-10-31T00:54:23;11.00;99.90
27384;DHT22;14851;51.166;4.760;2023-10-31T00:56:49;11.00;99.90
27384;DHT22;14851;51.166;4.760;2023-10-31T00:59:16;11.00;99.90
27384;DHT22;14851;51.166;4.760;2023-10-31T01:01:42;11.00;99.90
27384;DHT22;14851;51.166;4.760;2023-10-31T01:04:10;11.00;99.90
27384;DHT22;14851;51.166;4.760;2023-10-31T01:06:41;11.00;99.90
27384;DHT22;14851;51.166;4.760;2023-10-31T01:09:08;11.00;99.90
27384;DHT22;14851;51.166;4.760;2023-10-31T01:11:36;11.00;99.90
27384;DHT22;14851;51.166;4.760;2023-10-31T01:14:02;11.00;99.90
27384;DHT22;14851;51.166;4.760;2023-10-31T01:16:29;11.00;99.90
27384;DHT22;14851;51.166;4.760;2023-10-31T01:18:55;11.00;99.90
27384;DHT22;14851;51.166;4.760;2023-10-31T01:21:21;11.00;99.90
27384;DHT22;14851;51.166;4.760;2023-10-31T01:23:47;11.00;99.90
27384;DHT22;14851;51.166;4.760;2023-10-31T01:26:17;11.00;99.90
27384;DHT22;14851;51.166;4.760;2023-10-31T01:28:44;11.00;99.90
27384;DHT22;14851;51.166;4.760;2023-10-31T01:31:12;11.00;99.90
27384;DHT22;14851;51.166;4.760;2023-10-31T01:33:40;11.00;99.90
27384;DHT22;14851;51.166;4.760;2023-10-31T01:36:07;11.00;99.90
27384;DHT22;14851;51.166;4.760;2023-10-31T01:38:33;11.00;99.90
27384;DHT22;14851;51.166;4.760;2023-10-31T01:41:00;11.00;99.90
27384;DHT22;14851;51.166;4.760;2023-10-31T01:43:34;11.00;99.90
27384;DHT22;14851;51.166;4.760;2023-10-31T01:46:04;11.00;99.90
27384;DHT22;14851;51.166;4.760;2023-10-31T01:48:32;11.00;99.90
27384;DHT22;14851;51.166;4.760;2023-10-31T01:51:00;11.00;99.90
27384;DHT22;14851;51.166;4.760;2023-10-31T01:53:32;11.00;99.90
27384;DHT22;14851;51.166;4.760;2023-10-31T01:56:00;11.00;99.90
27384;DHT22;14851;51.166;4.760;2023-10-31T01:58:33;11.00;99.90
27384;DHT22;14851;51.166;4.760;2023-10-31T02:01:00;11.00;99.90
27384;DHT22;14851;51.166;4.760;2023-10-31T02:03:30;11.00;99.90
27384;DHT22;14851;51.166;4.760;2023-10-31T02:05:57;11.00;99.90
27384;DHT22;14851;51.166;4.760;2023-10-31T02:08:25;11.00;99.90
27384;DHT22;14851;51.166;4.760;2023-10-31T02:10:53;11.00;99.90
27384;DHT22;14851;51.166;4.760;2023-10-31T02:13:21;11.00;99.90
27384;DHT22;14851;51.166;4.760;2023-10-31T02:15:47;11.00;99.90
27384;DHT22;14851;51.166;4.760;2023-10-31T02:18:14;11.10;99.90
27384;DHT22;14851;51.166;4.760;2023-10-31T02:20:41;11.00;99.90
27384;DHT22;14851;51.166;4.760;2023-10-31T02:23:08;11.10;99.90
27384;DHT22;14851;51.166;4.760;2023-10-31T02:25:34;11.10;99.90
27384;DHT22;14851;51.166;4.760;2023-10-31T02:28:01;11.10;99.90
27384;DHT22;14851;51.166;4.760;2023-10-31T02:30:28;11.10;99.90
27384;DHT22;14851;51.166;4.760;2023-10-31T02:32:54;11.10;99.90
27384;DHT22;14851;51.166;4.760;2023-10-31T02:35:21;11.00;99.90
27384;DHT22;14851;51.166;4.760;2023-10-31T02:37:50;11.00;99.90
27384;DHT22;14851;51.166;4.760;2023-10-31T02:40:17;11.00;99.90
27384;DHT22;14851;51.166;4.760;2023-10-31T02:42:47;11.00;99.90
27384;DHT22;14851;51.166;4.760;2023-10-31T02:45:14;11.00;99.90
27384;DHT22;14851;51.166;4.760;2023-10-31T02:47:40;11.00;99.90
27384;DHT22;14851;51.166;4.760;2023-10-31T02:50:07;11.00;99.90
27384;DHT22;14851;51.166;4.760;2023-10-31T02:52:33;11.10;99.90
27384;DHT22;14851;51.166;4.760;2023-10-31T02:55:00;11.10;99.90
27384;DHT22;14851;51.166;4.760;2023-10-31T02:57:26;11.00;99.90
27384;DHT22;14851;51.166;4.760;2023-10-31T02:59:53;11.00;99.90
27384;DHT22;14851;51.166;4.760;2023-10-31T03:02:19;11.00;99.90
27384;DHT22;14851;51.166;4.760;2023-10-31T03:04:48;10.90;99.90
27384;DHT22;14851;51.166;4.760;2023-10-31T03:07:14;10.90;99.90
27384;DHT22;14851;51.166;4.760;2023-10-31T03:09:40;10.90;99.90
27384;DHT22;14851;51.166;4.760;2023-10-31T03:12:09;10.90;99.90
27384;DHT22;14851;51.166;4.760;2023-10-31T03:14:39;10.90;99.90
27384;DHT22;14851;51.166;4.760;2023-10-31T03:17:05;10.90;99.90
27384;DHT22;14851;51.166;4.760;2023-10-31T03:19:33;10.90;99.90
27384;DHT22;14851;51.166;4.760;2023-10-31T03:22:02;10.90;99.90
27384;DHT22;14851;51.166;4.760;2023-10-31T03:24:31;11.00;99.90
27384;DHT22;14851;51.166;4.760;2023-10-31T03:26:59;11.00;99.90
27384;DHT22;14851;51.166;4.760;2023-10-31T03:29:25;10.90;99.90
27384;DHT22;14851;51.166;4.760;2023-10-31T03:31:51;10.90;99.90
27384;DHT22;14851;51.166;4.760;2023-10-31T03:34:17;10.90;99.90
27384;DHT22;14851;51.166;4.760;2023-10-31T03:36:43;10.90;99.90
27384;DHT22;14851;51.166;4.760;2023-10-31T03:39:09;10.90;99.90
27384;DHT22;14851;51.166;4.760;2023-10-31T03:41:36;10.90;99.90
27384;DHT22;14851;51.166;4.760;2023-10-31T03:44:02;10.90;99.90
27384;DHT22;14851;51.166;4.760;2023-10-31T03:46:28;10.90;99.90
27384;DHT22;14851;51.166;4.760;2023-10-31T03:48:55;10.90;99.90
27384;DHT22;14851;51.166;4.760;2023-10-31T03:51:21;10.90;99.90
27384;DHT22;14851;51.166;4.760;2023-10-31T03:53:47;10.90;99.90
27384;DHT22;14851;51.166;4.760;2023-10-31T03:56:14;10.80;99.90
27384;DHT22;14851;51.166;4.760;2023-10-31T03:58:42;10.80;99.90
27384;DHT22;14851;51.166;4.760;2023-10-31T04:01:08;10.80;99.90
27384;DHT22;14851;51.166;4.760;2023-10-31T04:03:34;10.80;99.90
27384;DHT22;14851;51.166;4.760;2023-10-31T04:06:00;10.70;99.90
27384;DHT22;14851;51.166;4.760;2023-10-31T04:08:26;10.70;99.90
27384;DHT22;14851;51.166;4.760;2023-10-31T04:10:53;10.70;99.90
27384;DHT22;14851;51.166;4.760;2023-10-31T04:13:19;10.70;99.90
27384;DHT22;14851;51.166;4.760;2023-10-31T04:15:45;10.70;99.90
27384;DHT22;14851;51.166;4.760;2023-10-31T04:18:11;10.70;99.90
27384;DHT22;14851;51.166;4.760;2023-10-31T04:20:37;10.70;99.90
27384;DHT22;14851;51.166;4.760;2023-10-31T04:23:03;10.70;99.90
27384;DHT22;14851;51.166;4.760;2023-10-31T04:25:33;10.60;99.90
27384;DHT22;14851;51.166;4.760;2023-10-31T04:27:59;10.60;99.90
27384;DHT22;14851;51.166;4.760;2023-10-31T04:30:26;10.60;99.90
27384;DHT22;14851;51.166;4.760;2023-10-31T04:32:53;10.60;99.90
27384;DHT22;14851;51.166;4.760;2023-10-31T04:35:19;10.60;99.90
27384;DHT22;14851;51.166;4.760;2023-10-31T04:37:45;10.60;99.90
27384;DHT22;14851;51.166;4.760;2023-10-31T04:40:12;10.60;99.90
27384;DHT22;14851;51.166;4.760;2023-10-31T04:42:42;10.50;99.90
27384;DHT22;14851;51.166;4.760;2023-10-31T04:45:08;10.60;99.90
27384;DHT22;14851;51.166;4.760;2023-10-31T04:47:34;10.60;99.90
27384;DHT22;14851;51.166;4.760;2023-10-31T04:50:00;10.50;99.90
27384;DHT22;14851;51.166;4.760;2023-10-31T04:52:29;10.50;99.90
27384;DHT22;14851;51.166;4.760;2023-10-31T04:54:55;10.50;99.90
27384;DHT22;14851;51.166;4.760;2023-10-31T04:57:21;10.50;99.90
27384;DHT22;14851;51.166;4.760;2023-10-31T04:59:48;10.50;99.90
27384;DHT22;14851;51.166;4.760;2023-10-31T05:02:14;10.50;99.90
27384;DHT22;14851;51.166;4.760;2023-10-31T05:04:42;10.50;99.90
27384;DHT22;14851;51.166;4.760;2023-10-31T05:07:09;10.50;99.90
27384;DHT22;14851;51.166;4.760;2023-10-31T05:09:35;10.50;99.90
27384;DHT22;14851;51.166;4.760;2023-10-31T05:12:02;10.50;99.90
27384;DHT22;14851;51.166;4.760;2023-10-31T05:14:28;10.50;99.90
27384;DHT22;14851;51.166;4.760;2023-10-31T05:16:54;10.50;99.90
27384;DHT22;14851;51.166;4.760;2023-10-31T05:19:20;10.50;99.90
27384;DHT22;14851;51.166;4.760;2023-10-31T05:21:47;10.50;99.90
27384;DHT22;14851;51.166;4.760;2023-10-31T05:24:13;10.40;99.90
27384;DHT22;14851;51.166;4.760;2023-10-31T05:26:40;10.40;99.90
27384;DHT22;14851;51.166;4.760;2023-10-31T05:29:11;10.40;99.90
27384;DHT22;14851;51.166;4.760;2023-10-31T05:31:37;10.40;99.90
27384;DHT22;14851;51.166;4.760;2023-10-31T05:34:10;10.30;99.90
27384;DHT22;14851;51.166;4.760;2023-10-31T05:36:38;10.30;99.90
27384;DHT22;14851;51.166;4.760;2023-10-31T05:39:06;10.30;99.90
27384;DHT22;14851;51.166;4.760;2023-10-31T05:41:36;10.30;99.90
27384;DHT22;14851;51.166;4.760;2023-10-31T05:44:03;10.30;99.90
27384;DHT22;14851;51.166;4.760;2023-10-31T05:46:38;10.30;99.90
27384;DHT22;14851;51.166;4.760;2023-10-31T05:49:07;10.30;99.90
27384;DHT22;14851;51.166;4.760;2023-10-31T05:51:33;10.30;99.90
27384;DHT22;14851;51.166;4.760;2023-10-31T05:54:02;10.40;99.90
27384;DHT22;14851;51.166;4.760;2023-10-31T05:56:29;10.40;99.90
27384;DHT22;14851;51.166;4.760;2023-10-31T05:58:55;10.40;99.90
27384;DHT22;14851;51.166;4.760;2023-10-31T06:01:21;10.30;99.90
27384;DHT22;14851;51.166;4.760;2023-10-31T06:03:47;10.30;99.90
27384;DHT22;14851;51.166;4.760;2023-10-31T06:06:14;10.40;99.90
27384;DHT22;14851;51.166;4.760;2023-10-31T06:08:43;10.40;99.90
27384;DHT22;14851;51.166;4.760;2023-10-31T06:11:09;10.40;99.90
27384;DHT22;14851;51.166;4.760;2023-10-31T06:13:38;10.40;99.90
27384;DHT22;14851;51.166;4.760;2023-10-31T06:16:07;10.40;99.90
27384;DHT22;14851;51.166;4.760;2023-10-31T06:18:34;10.40;99.90
27384;DHT22;14851;51.166;4.760;2023-10-31T06:21:00;10.40;99.90
27384;DHT22;14851;51.166;4.760;2023-10-31T06:23:28;10.40;99.90
27384;DHT22;14851;51.166;4.760;2023-10-31T06:25:56;10.40;99.90
27384;DHT22;14851;51.166;4.760;2023-10-31T06:28:23;10.40;99.90
27384;DHT22;14851;51.166;4.760;2023-10-31T06:30:49;10.40;99.90
27384;DHT22;14851;51.166;4.760;2023-10-31T06:33:15;10.40;99.90
27384;DHT22;14851;51.166;4.760;2023-10-31T06:35:42;10.40;99.90
27384;DHT22;14851;51.166;4.760;2023-10-31T06:38:08;10.40;99.90
27384;DHT22;14851;51.166;4.760;2023-10-31T06:40:34;10.40;99.90
27384;DHT22;14851;51.166;4.760;2023-10-31T06:43:01;10.40;99.90
27384;DHT22;14851;51.166;4.760;2023-10-31T06:45:31;10.40;99.90
27384;DHT22;14851;51.166;4.760;2023-10-31T06:47:57;10.30;99.90
27384;DHT22;14851;51.166;4.760;2023-10-31T06:50:24;10.40;99.90
27384;DHT22;14851;51.166;4.760;2023-10-31T06:52:50;10.40;99.90
27384;DHT22;14851;51.166;4.760;2023-10-31T06:55:16;10.40;99.90
27384;DHT22;14851;51.166;4.760;2023-10-31T06:57:42;10.40;99.90
27384;DHT22;14851;51.166;4.760;2023-10-31T07:00:10;10.40;99.90
27384;DHT22;14851;51.166;4.760;2023-10-31T07:02:36;10.40;99.90
27384;DHT22;14851;51.166;4.760;2023-10-31T07:05:04;10.40;99.90
27384;DHT22;14851;51.166;4.760;2023-10-31T07:07:30;10.40;99.90
27384;DHT22;14851;51.166;4.760;2023-10-31T07:09:59;10.40;99.90
27384;DHT22;14851;51.166;4.760;2023-10-31T07:12:25;10.50;99.90
27384;DHT22;14851;51.166;4.760;2023-10-31T07:14:53;10.50;99.90
27384;DHT22;14851;51.166;4.760;2023-10-31T07:17:20;10.40;99.90
27384;DHT22;14851;51.166;4.760;2023-10-31T07:19:48;10.50;99.90
27384;DHT22;14851;51.166;4.760;2023-10-31T07:22:15;10.50;99.90
27384;DHT22;14851;51.166;4.760;2023-10-31T07:24:44;10.50;99.90
27384;DHT22;14851;51.166;4.760;2023-10-31T07:27:10;10.50;99.90
27384;DHT22;14851;51.166;4.760;2023-10-31T07:29:39;10.50;99.90
27384;DHT22;14851;51.166;4.760;2023-10-31T07:32:07;10.50;99.90
27384;DHT22;14851;51.166;4.760;2023-10-31T07:34:33;10.50;99.90
27384;DHT22;14851;51.166;4.760;2023-10-31T07:37:00;10.50;99.90
27384;DHT22;14851;51.166;4.760;2023-10-31T07:39:27;10.50;99.90
27384;DHT22;14851;51.166;4.760;2023-10-31T07:41:53;10.50;99.90
27384;DHT22;14851;51.166;4.760;2023-10-31T07:44:19;10.50;99.90
27384;DHT22;14851;51.166;4.760;2023-10-31T07:46:45;10.50;99.90
27384;DHT22;14851;51.166;4.760;2023-10-31T07:49:12;10.50;99.90
27384;DHT22;14851;51.166;4.760;2023-10-31T07:51:38;10.50;99.90
27384;DHT22;14851;51.166;4.760;2023-10-31T07:54:04;10.50;99.90
27384;DHT22;14851;51.166;4.760;2023-10-31T07:56:31;10.50;99.90
27384;DHT22;14851;51.166;4.760;2023-10-31T07:58:58;10.50;99.90
27384;DHT22;14851;51.166;4.760;2023-10-31T08:01:24;10.50;99.90
27384;DHT22;14851;51.166;4.760;2023-10-31T08:03:51;10.50;99.90
27384;DHT22;14851;51.166;4.760;2023-10-31T08:06:17;10.50;99.90
27384;DHT22;14851;51.166;4.760;2023-10-31T08:08:43;10.60;99.90
27384;DHT22;14851;51.166;4.760;2023-10-31T08:11:10;10.60;99.90
27384;DHT22;14851;51.166;4.760;2023-10-31T08:13:39;10.60;99.90
27384;DHT22;14851;51.166;4.760;2023-10-31T08:16:06;10.60;99.90
27384;DHT22;14851;51.166;4.760;2023-10-31T08:18:33;10.70;99.90
27384;DHT22;14851;51.166;4.760;2023-10-31T08:20:59;10.70;99.90
27384;DHT22;14851;51.166;4.760;2023-10-31T08:23:25;10.60;99.90
27384;DHT22;14851;51.166;4.760;2023-10-31T08:25:52;10.70;99.90
27384;DHT22;14851;51.166;4.760;2023-10-31T08:28:18;10.70;99.90
27384;DHT22;14851;51.166;4.760;2023-10-31T08:30:45;10.70;99.90
27384;DHT22;14851;51.166;4.760;2023-10-31T08:33:12;10.70;99.90
27384;DHT22;14851;51.166;4.760;2023-10-31T08:35:39;10.70;99.90
27384;DHT22;14851;51.166;4.760;2023-10-31T08:38:05;10.70;99.90
27384;DHT22;14851;51.166;4.760;2023-10-31T08:40:31;10.70;99.90
27384;DHT22;14851;51.166;4.760;2023-10-31T08:42:57;10.70;99.90
27384;DHT22;14851;51.166;4.760;2023-10-31T08:45:24;10.80;99.90
27384;DHT22;14851;51.166;4.760;2023-10-31T08:47:50;10.80;99.90
27384;DHT22;14851;51.166;4.760;2023-10-31T08:50:16;10.80;99.90
27384;DHT22;14851;51.166;4.760;2023-10-31T08:52:42;10.80;99.90
27384;DHT22;14851;51.166;4.760;2023-10-31T08:55:08;10.80;99.90
27384;DHT22;14851;51.166;4.760;2023-10-31T08:57:34;10.80;99.90
27384;DHT22;14851;51.166;4.760;2023-10-31T09:00:00;10.80;99.90
27384;DHT22;14851;51.166;4.760;2023-10-31T09:02:27;10.80;99.90
27384;DHT22;14851;51.166;4.760;2023-10-31T09:04:53;10.80;99.90
27384;DHT22;14851;51.166;4.760;2023-10-31T09:07:19;10.90;99.90
27384;DHT22;14851;51.166;4.760;2023-10-31T09:09:46;11.00;99.90
27384;DHT22;14851;51.166;4.760;2023-10-31T09:12:12;10.90;99.90
27384;DHT22;14851;51.166;4.760;2023-10-31T09:14:39;11.00;99.90
27384;DHT22;14851;51.166;4.760;2023-10-31T09:17:06;11.00;99.90
27384;DHT22;14851;51.166;4.760;2023-10-31T09:19:34;11.00;99.90
27384;DHT22;14851;51.166;4.760;2023-10-31T09:22:00;11.00;99.90
27384;DHT22;14851;51.166;4.760;2023-10-31T09:24:27;11.00;99.90
27384;DHT22;14851;51.166;4.760;2023-10-31T09:26:53;11.10;99.90
27384;DHT22;14851;51.166;4.760;2023-10-31T09:29:19;11.10;99.90
27384;DHT22;14851;51.166;4.760;2023-10-31T09:31:46;11.10;99.90
27384;DHT22;14851;51.166;4.760;2023-10-31T09:34:13;11.20;99.90
27384;DHT22;14851;51.166;4.760;2023-10-31T09:36:40;11.20;99.90
27384;DHT22;14851;51.166;4.760;2023-10-31T09:39:10;11.20;99.90
27384;DHT22;14851;51.166;4.760;2023-10-31T09:41:36;11.20;99.90
27384;DHT22;14851;51.166;4.760;2023-10-31T09:44:03;11.20;99.90
27384;DHT22;14851;51.166;4.760;2023-10-31T09:46:34;11.30;99.90
27384;DHT22;14851;51.166;4.760;2023-10-31T09:49:01;11.30;99.90
27384;DHT22;14851;51.166;4.760;2023-10-31T09:51:28;11.30;99.90
27384;DHT22;14851;51.166;4.760;2023-10-31T09:53:57;11.40;99.90
27384;DHT22;14851;51.166;4.760;2023-10-31T09:56:25;11.40;99.90
27384;DHT22;14851;51.166;4.760;2023-10-31T09:58:52;11.40;99.90
27384;DHT22;14851;51.166;4.760;2023-10-31T10:01:19;11.40;99.90
27384;DHT22;14851;51.166;4.760;2023-10-31T10:03:45;11.40;99.90
27384;DHT22;14851;51.166;4.760;2023-10-31T10:06:12;11.40;99.90
27384;DHT22;14851;51.166;4.760;2023-10-31T10:08:41;11.40;99.90
27384;DHT22;14851;51.166;4.760;2023-10-31T10:11:08;11.40;99.90
27384;DHT22;14851;51.166;4.760;2023-10-31T10:13:35;11.40;99.90
27384;DHT22;14851;51.166;4.760;2023-10-31T10:16:02;11.50;99.90
27384;DHT22;14851;51.166;4.760;2023-10-31T10:18:32;11.50;99.90
27384;DHT22;14851;51.166;4.760;2023-10-31T10:21:04;11.50;99.90
27384;DHT22;14851;51.166;4.760;2023-10-31T10:23:32;11.50;99.90
27384;DHT22;14851;51.166;4.760;2023-10-31T10:25:59;11.50;99.90
27384;DHT22;14851;51.166;4.760;2023-10-31T10:28:26;11.50;99.90
27384;DHT22;14851;51.166;4.760;2023-10-31T10:30:54;11.50;99.90
27384;DHT22;14851;51.166;4.760;2023-10-31T10:33:23;11.50;99.90
27384;DHT22;14851;51.166;4.760;2023-10-31T10:35:52;11.50;99.90
27384;DHT22;14851;51.166;4.760;2023-10-31T10:38:22;11.60;99.90
27384;DHT22;14851;51.166;4.760;2023-10-31T10:40:49;11.60;99.90
27384;DHT22;14851;51.166;4.760;2023-10-31T10:43:24;11.60;99.90
27384;DHT22;14851;51.166;4.760;2023-10-31T10:45:54;11.60;99.90
27384;DHT22;14851;51.166;4.760;2023-10-31T10:48:27;11.70;99.90
27384;DHT22;14851;51.166;4.760;2023-10-31T10:51:06;11.70;99.90
27384;DHT22;14851;51.166;4.760;2023-10-31T10:53:51;11.80;99.90
27384;DHT22;14851;51.166;4.760;2023-10-31T10:56:38;11.80;99.90
27384;DHT22;14851;51.166;4.760;2023-10-31T10:59:21;11.80;99.90
27384;DHT22;14851;51.166;4.760;2023-10-31T11:01:53;11.90;99.90
27384;DHT22;14851;51.166;4.760;2023-10-31T11:04:23;11.90;99.90
27384;DHT22;14851;51.166;4.760;2023-10-31T11:06:50;11.90;99.90
27384;DHT22;14851;51.166;4.760;2023-10-31T11:09:17;12.00;99.90
27384;DHT22;14851;51.166;4.760;2023-10-31T11:11:45;12.10;99.90
27384;DHT22;14851;51.166;4.760;2023-10-31T11:14:19;12.10;99.90
27384;DHT22;14851;51.166;4.760;2023-10-31T11:16:53;12.20;99.90
27384;DHT22;14851;51.166;4.760;2023-10-31T11:19:19;12.20;99.90
27384;DHT22;14851;51.166;4.760;2023-10-31T11:21:58;12.20;99.90
27384;DHT22;14851;51.166;4.760;2023-10-31T11:24:37;12.10;99.90
27384;DHT22;14851;51.166;4.760;2023-10-31T11:27:05;12.20;99.90
27384;DHT22;14851;51.166;4.760;2023-10-31T11:29:32;12.20;99.90
27384;DHT22;14851;51.166;4.760;2023-10-31T11:31:59;12.20;99.90
27384;DHT22;14851;51.166;4.760;2023-10-31T11:34:31;12.10;99.90
27384;DHT22;14851;51.166;4.760;2023-10-31T11:37:24;12.10;99.90
27384;DHT22;14851;51.166;4.760;2023-10-31T11:42:49;12.10;99.90
27384;DHT22;14851;51.166;4.760;2023-10-31T11:45:34;12.10;99.90
27384;DHT22;14851;51.166;4.760;2023-10-31T11:48:05;12.20;99.90
27384;DHT22;14851;51.166;4.760;2023-10-31T11:50:32;12.20;99.90
27384;DHT22;14851;51.166;4.760;2023-10-31T11:53:09;12.20;99.90
27384;DHT22;14851;51.166;4.760;2023-10-31T11:55:46;12.30;99.90
27384;DHT22;14851;51.166;4.760;2023-10-31T12:00:42;12.30;99.90
27384;DHT22;14851;51.166;4.760;2023-10-31T12:03:10;12.40;99.90
27384;DHT22;14851;51.166;4.760;2023-10-31T12:05:39;12.40;99.90
27384;DHT22;14851;51.166;4.760;2023-10-31T12:08:06;12.40;99.90
27384;DHT22;14851;51.166;4.760;2023-10-31T12:10:33;12.40;99.90
27384;DHT22;14851;51.166;4.760;2023-10-31T12:12:59;12.40;99.90
27384;DHT22;14851;51.166;4.760;2023-10-31T12:15:28;12.40;99.90
27384;DHT22;14851;51.166;4.760;2023-10-31T12:17:58;12.40;99.90
27384;DHT22;14851;51.166;4.760;2023-10-31T12:20:25;12.30;99.90
27384;DHT22;14851;51.166;4.760;2023-10-31T12:23:02;12.30;99.90
27384;DHT22;14851;51.166;4.760;2023-10-31T12:25:29;12.30;99.90
27384;DHT22;14851;51.166;4.760;2023-10-31T12:27:58;12.30;99.90
27384;DHT22;14851;51.166;4.760;2023-10-31T12:30:25;12.30;99.90
27384;DHT22;14851;51.166;4.760;2023-10-31T12:32:55;12.40;99.90
27384;DHT22;14851;51.166;4.760;2023-10-31T12:35:25;12.30;99.90
27384;DHT22;14851;51.166;4.760;2023-10-31T12:37:52;12.30;99.90
27384;DHT22;14851;51.166;4.760;2023-10-31T12:40:20;12.30;99.90
27384;DHT22;14851;51.166;4.760;2023-10-31T12:42:48;12.30;99.90
27384;DHT22;14851;51.166;4.760;2023-10-31T12:45:16;12.30;99.90
27384;DHT22;14851;51.166;4.760;2023-10-31T12:47:43;12.30;99.90
27384;DHT22;14851;51.166;4.760;2023-10-31T12:50:15;12.30;99.90
27384;DHT22;14851;51.166;4.760;2023-10-31T12:55:17;12.20;99.90
27384;DHT22;14851;51.166;4.760;2023-10-31T12:57:44;12.20;99.90
27384;DHT22;14851;51.166;4.760;2023-10-31T13:00:16;12.20;99.90
27384;DHT22;14851;51.166;4.760;2023-10-31T13:02:44;12.10;99.90
27384;DHT22;14851;51.166;4.760;2023-10-31T13:05:13;12.10;99.90
27384;DHT22;14851;51.166;4.760;2023-10-31T13:07:41;12.10;99.90
27384;DHT22;14851;51.166;4.760;2023-10-31T13:10:16;12.10;99.90
27384;DHT22;14851;51.166;4.760;2023-10-31T13:12:45;12.00;99.90
27384;DHT22;14851;51.166;4.760;2023-10-31T13:15:18;12.00;99.90
27384;DHT22;14851;51.166;4.760;2023-10-31T13:17:45;12.00;99.90
27384;DHT22;14851;51.166;4.760;2023-10-31T13:20:13;12.00;99.90
27384;DHT22;14851;51.166;4.760;2023-10-31T13:22:40;11.90;99.90
27384;DHT22;14851;51.166;4.760;2023-10-31T13:25:12;12.00;99.90
27384;DHT22;14851;51.166;4.760;2023-10-31T13:27:43;11.90;99.90
27384;DHT22;14851;51.166;4.760;2023-10-31T13:30:11;11.90;99.90
27384;DHT22;14851;51.166;4.760;2023-10-31T13:32:38;11.90;99.90
27384;DHT22;14851;51.166;4.760;2023-10-31T13:35:06;11.90;99.90
27384;DHT22;14851;51.166;4.760;2023-10-31T13:37:34;11.80;99.90
27384;DHT22;14851;51.166;4.760;2023-10-31T13:40:01;11.80;99.90
27384;DHT22;14851;51.166;4.760;2023-10-31T13:42:28;11.80;99.90
27384;DHT22;14851;51.166;4.760;2023-10-31T13:44:54;11.90;99.90
27384;DHT22;14851;51.166;4.760;2023-10-31T13:47:21;11.80;99.90
27384;DHT22;14851;51.166;4.760;2023-10-31T13:49:47;11.90;99.90
27384;DHT22;14851;51.166;4.760;2023-10-31T13:52:14;11.90;99.90
27384;DHT22;14851;51.166;4.760;2023-10-31T13:54:41;11.90;99.90
27384;DHT22;14851;51.166;4.760;2023-10-31T13:57:07;11.90;99.90
27384;DHT22;14851;51.166;4.760;2023-10-31T13:59:33;11.90;99.90
27384;DHT22;14851;51.166;4.760;2023-10-31T14:02:02;11.90;99.90
27384;DHT22;14851;51.166;4.760;2023-10-31T14:04:28;11.90;99.90
27384;DHT22;14851;51.166;4.760;2023-10-31T14:06:55;11.90;99.90
27384;DHT22;14851;51.166;4.760;2023-10-31T14:09:21;11.90;99.90
27384;DHT22;14851;51.166;4.760;2023-10-31T14:11:47;11.90;99.90
27384;DHT22;14851;51.166;4.760;2023-10-31T14:14:15;11.90;99.90
27384;DHT22;14851;51.166;4.760;2023-10-31T14:16:42;11.90;99.90
27384;DHT22;14851;51.166;4.760;2023-10-31T14:19:12;11.90;99.90
27384;DHT22;14851;51.166;4.760;2023-10-31T14:21:39;11.90;99.90
27384;DHT22;14851;51.166;4.760;2023-10-31T14:24:06;11.90;99.90
27384;DHT22;14851;51.166;4.760;2023-10-31T14:26:34;12.00;99.90
27384;DHT22;14851;51.166;4.760;2023-10-31T14:29:04;12.00;99.90
27384;DHT22;14851;51.166;4.760;2023-10-31T14:31:30;12.10;99.90
27384;DHT22;14851;51.166;4.760;2023-10-31T14:33:56;12.20;99.90
27384;DHT22;14851;51.166;4.760;2023-10-31T14:36:23;12.20;99.90
27384;DHT22;14851;51.166;4.760;2023-10-31T14:38:49;12.20;99.90
27384;DHT22;14851;51.166;4.760;2023-10-31T14:41:18;12.30;99.90
27384;DHT22;14851;51.166;4.760;2023-10-31T14:43:44;12.30;99.90
27384;DHT22;14851;51.166;4.760;2023-10-31T14:46:13;12.30;99.90
27384;DHT22;14851;51.166;4.760;2023-10-31T14:48:39;12.30;99.90
27384;DHT22;14851;51.166;4.760;2023-10-31T14:51:05;12.30;99.90
27384;DHT22;14851;51.166;4.760;2023-10-31T14:53:32;12.30;99.90
27384;DHT22;14851;51.166;4.760;2023-10-31T14:55:59;12.30;99.90
27384;DHT22;14851;51.166;4.760;2023-10-31T14:58:27;12.20;99.90
27384;DHT22;14851;51.166;4.760;2023-10-31T15:00:53;12.20;99.90
27384;DHT22;14851;51.166;4.760;2023-10-31T15:03:19;12.20;99.90
27384;DHT22;14851;51.166;4.760;2023-10-31T15:05:47;12.20;99.90
27384;DHT22;14851;51.166;4.760;2023-10-31T15:08:13;12.20;99.90
27384;DHT22;14851;51.166;4.760;2023-10-31T15:10:44;12.20;99.90
27384;DHT22;14851;51.166;4.760;2023-10-31T15:13:12;12.20;99.90
27384;DHT22;14851;51.166;4.760;2023-10-31T15:15:38;12.20;99.90
27384;DHT22;14851;51.166;4.760;2023-10-31T15:18:06;12.20;99.90
27384;DHT22;14851;51.166;4.760;2023-10-31T15:20:33;12.20;99.90
27384;DHT22;14851;51.166;4.760;2023-10-31T15:23:00;12.20;99.90
27384;DHT22;14851;51.166;4.760;2023-10-31T15:25:26;12.20;99.90
27384;DHT22;14851;51.166;4.760;2023-10-31T15:27:55;12.10;99.90
27384;DHT22;14851;51.166;4.760;2023-10-31T15:30:23;12.10;99.90
27384;DHT22;14851;51.166;4.760;2023-10-31T15:32:49;12.10;99.90
27384;DHT22;14851;51.166;4.760;2023-10-31T15:35:16;12.10;99.90
27384;DHT22;14851;51.166;4.760;2023-10-31T15:37:43;12.10;99.90
27384;DHT22;14851;51.166;4.760;2023-10-31T15:40:10;12.10;99.90